createdAt,value
2019-03-04T00:00:45.510Z,75.79
2019-03-04T00:03:13.142Z,75.54
2019-03-04T00:05:40.401Z,75.40
2019-03-04T00:08:07.679Z,75.61
2019-03-04T00:10:34.969Z,75.55
2019-03-04T00:13:02.375Z,75.61
2019-03-04T00:15:29.619Z,75.65
2019-03-04T00:17:56.862Z,75.32
2019-03-04T00:20:24.156Z,75.26
2019-03-04T00:22:51.422Z,75.37
2019-03-04T00:25:18.739Z,75.52
2019-03-04T00:27:45.992Z,75.50
2019-03-04T00:30:13.253Z,75.55
2019-03-04T00:32:40.636Z,75.86
2019-03-04T00:35:07.999Z,75.90
2019-03-04T00:37:35.260Z,75.99
2019-03-04T00:40:02.690Z,76.58
2019-03-04T00:42:29.909Z,77.03
2019-03-04T00:44:57.202Z,76.91
2019-03-04T00:47:24.439Z,77.68
2019-03-04T00:49:51.679Z,77.78
2019-03-04T00:52:18.941Z,78.32
2019-03-04T00:54:46.184Z,78.71
2019-03-04T00:57:13.427Z,78.78
2019-03-04T00:59:40.697Z,78.56
2019-03-04T01:02:07.934Z,78.93
2019-03-04T01:04:35.197Z,78.62
2019-03-04T01:07:02.514Z,78.71
2019-03-04T01:09:29.798Z,78.56
2019-03-04T01:11:57.109Z,78.19
2019-03-04T01:14:24.451Z,77.81
2019-03-04T01:16:51.723Z,77.83
2019-03-04T01:19:19.006Z,77.61
2019-03-04T01:21:46.257Z,77.22
2019-03-04T01:24:13.502Z,77.37
2019-03-04T01:26:40.822Z,76.77
2019-03-04T01:29:08.093Z,76.81
2019-03-04T01:31:35.337Z,76.59
2019-03-04T01:34:02.584Z,76.59
2019-03-04T01:36:29.893Z,76.53
2019-03-04T01:38:57.151Z,76.67
2019-03-04T01:41:24.397Z,76.63
2019-03-04T01:43:51.676Z,76.65
2019-03-04T01:46:18.924Z,76.26
2019-03-04T01:48:46.191Z,76.26
2019-03-04T01:51:13.482Z,75.78
2019-03-04T01:53:40.735Z,75.70
2019-03-04T01:56:07.976Z,75.62
2019-03-04T01:58:35.268Z,75.50
2019-03-04T02:01:02.556Z,75.81
2019-03-04T02:03:29.815Z,76.00
2019-03-04T02:05:57.061Z,76.86
2019-03-04T02:08:24.431Z,76.59
2019-03-04T02:10:51.713Z,76.32
2019-03-04T02:13:18.998Z,76.21
2019-03-04T02:15:46.373Z,76.12
2019-03-04T02:18:13.624Z,76.38
2019-03-04T02:20:40.966Z,76.02
2019-03-04T02:23:08.221Z,76.13
2019-03-04T02:26:19.148Z,75.97
2019-03-04T02:28:46.417Z,75.86
2019-03-04T02:31:13.824Z,75.71
2019-03-04T02:33:41.068Z,75.71
2019-03-04T02:36:08.339Z,75.76
2019-03-04T02:38:35.599Z,75.79
2019-03-04T02:41:02.883Z,75.50
2019-03-04T02:43:30.141Z,75.58
2019-03-04T02:45:57.405Z,75.17
2019-03-04T02:48:24.783Z,74.92
2019-03-04T02:50:52.052Z,75.00
2019-03-04T02:53:19.325Z,74.83
2019-03-04T02:55:46.588Z,74.55
2019-03-04T02:58:13.849Z,74.39
2019-03-04T03:00:41.446Z,74.66
2019-03-04T03:03:08.705Z,74.57
2019-03-04T03:05:35.988Z,74.29
2019-03-04T03:08:03.339Z,74.66
2019-03-04T03:10:30.601Z,74.97
2019-03-04T03:12:57.904Z,75.34
2019-03-04T03:15:25.685Z,75.52
2019-03-04T03:17:52.978Z,75.73
2019-03-04T03:20:20.237Z,75.92
2019-03-04T03:22:47.482Z,76.32
2019-03-04T03:25:14.948Z,76.24
2019-03-04T03:27:42.231Z,76.59
2019-03-04T03:30:10.033Z,77.02
2019-03-04T03:32:37.276Z,77.68
2019-03-04T03:35:08.024Z,77.59
2019-03-04T03:37:34.672Z,76.96
2019-03-04T03:40:01.973Z,77.14
2019-03-04T03:42:29.208Z,77.21
2019-03-04T03:44:56.482Z,77.65
2019-03-04T03:47:23.720Z,77.82
2019-03-04T03:49:50.981Z,77.98
2019-03-04T03:52:18.309Z,77.59
2019-03-04T03:54:45.614Z,77.43
2019-03-04T03:57:12.881Z,77.61
2019-03-04T03:59:40.139Z,77.31
2019-03-04T04:02:07.481Z,77.32
2019-03-04T04:04:34.741Z,77.64
2019-03-04T04:07:01.970Z,77.87
2019-03-04T04:09:29.266Z,78.26
2019-03-04T04:11:56.592Z,78.55
2019-03-04T04:14:23.895Z,78.20
2019-03-04T04:16:51.159Z,77.66
2019-03-04T04:19:18.424Z,77.63
2019-03-04T04:21:45.719Z,78.38
2019-03-04T04:24:12.968Z,78.38
2019-03-04T04:26:40.232Z,78.05
2019-03-04T04:29:11.197Z,78.09
2019-03-04T04:31:38.535Z,77.59
2019-03-04T04:34:05.897Z,77.55
2019-03-04T04:36:33.179Z,78.59
2019-03-04T04:39:01.521Z,78.91
2019-03-04T04:41:28.954Z,79.79
2019-03-04T04:43:56.220Z,79.79
2019-03-04T04:46:59.304Z,79.99
2019-03-04T04:49:29.265Z,79.62
2019-03-04T04:51:56.583Z,79.83
2019-03-04T04:54:23.822Z,79.80
2019-03-04T04:56:51.110Z,79.14
2019-03-04T04:59:18.361Z,78.70
2019-03-04T05:01:45.584Z,78.70
2019-03-04T05:04:12.845Z,78.89
2019-03-04T05:06:41.549Z,79.04
2019-03-04T05:09:08.827Z,78.65
2019-03-04T05:11:36.142Z,79.06
2019-03-04T05:14:04.288Z,79.06
2019-03-04T05:16:31.536Z,79.26
2019-03-04T05:18:58.776Z,79.36
2019-03-04T05:21:26.055Z,79.55
2019-03-04T05:23:53.372Z,78.72
2019-03-04T05:26:20.610Z,78.72
2019-03-04T05:28:47.839Z,78.99
2019-03-04T05:31:16.242Z,78.89
2019-03-04T05:33:43.489Z,78.79
2019-03-04T05:36:10.757Z,78.98
2019-03-04T05:38:38.002Z,78.73
2019-03-04T05:41:05.253Z,78.63
2019-03-04T05:43:32.482Z,78.40
2019-03-04T05:45:59.710Z,78.34
2019-03-04T05:48:26.988Z,78.76
2019-03-04T05:50:54.234Z,78.76
2019-03-04T05:53:21.452Z,78.68
2019-03-04T05:55:48.736Z,78.99
2019-03-04T05:58:15.976Z,78.99
2019-03-04T06:00:43.841Z,79.27
2019-03-04T06:03:11.688Z,79.27
2019-03-04T06:05:38.961Z,79.88
2019-03-04T06:08:07.302Z,78.82
2019-03-04T06:10:34.595Z,77.01
2019-03-04T06:13:03.989Z,77.01
2019-03-04T06:15:34.036Z,79.64
2019-03-04T06:18:01.291Z,77.80
2019-03-04T06:20:29.572Z,77.34
2019-03-04T06:22:56.821Z,78.50
2019-03-04T06:25:25.770Z,77.50
2019-03-04T06:27:53.384Z,79.01
2019-03-04T06:30:24.538Z,77.91
2019-03-04T06:32:51.900Z,77.92
2019-03-04T06:35:19.186Z,78.16
2019-03-04T06:37:47.632Z,78.57
2019-03-04T06:40:15.058Z,78.26
2019-03-04T06:42:42.300Z,78.19
2019-03-04T06:45:11.518Z,77.35
2019-03-04T06:47:38.902Z,78.79
2019-03-04T06:50:07.767Z,78.20
2019-03-04T06:52:34.996Z,78.84
2019-03-04T06:55:33.698Z,77.72
2019-03-04T06:58:00.964Z,77.26
2019-03-04T07:00:46.044Z,77.49
2019-03-04T07:03:26.444Z,77.48
2019-03-04T07:05:53.815Z,77.42
2019-03-04T07:08:59.955Z,77.38
2019-03-04T07:11:27.692Z,78.62
2019-03-04T07:13:55.965Z,77.55
2019-03-04T07:16:23.212Z,78.09
2019-03-04T07:18:50.438Z,77.95
2019-03-04T07:21:17.686Z,77.19
2019-03-04T07:23:44.915Z,77.23
2019-03-04T07:26:12.205Z,78.04
2019-03-04T07:28:39.427Z,78.99
2019-03-04T07:31:06.669Z,79.32
2019-03-04T07:33:33.962Z,79.23
2019-03-04T07:36:01.279Z,80.27
2019-03-04T07:38:41.451Z,79.24
2019-03-04T07:41:08.703Z,78.99
2019-03-04T07:43:35.974Z,78.73
2019-03-04T07:46:03.440Z,78.37
2019-03-04T07:48:30.695Z,79.68
2019-03-04T07:51:09.761Z,79.37
2019-03-04T07:53:46.005Z,78.54
2019-03-04T07:56:07.620Z,77.73
2019-03-04T07:58:35.004Z,77.48
2019-03-04T08:01:02.367Z,79.94
2019-03-04T08:03:29.660Z,77.31
2019-03-04T08:05:57.753Z,78.55
2019-03-04T08:08:25.298Z,76.39
2019-03-04T08:11:32.732Z,77.85
2019-03-04T08:14:01.135Z,76.96
2019-03-04T08:16:28.370Z,76.89
2019-03-04T08:18:55.668Z,77.91
2019-03-04T08:21:22.929Z,77.73
2019-03-04T08:23:50.182Z,78.40
2019-03-04T08:26:17.550Z,77.91
2019-03-04T08:28:44.941Z,77.42
2019-03-04T08:31:12.667Z,78.75
2019-03-04T08:33:41.318Z,79.67
2019-03-04T08:36:08.567Z,78.09
2019-03-04T08:38:35.868Z,78.10
2019-03-04T08:41:03.341Z,77.14
2019-03-04T08:43:31.624Z,79.64
2019-03-04T08:45:58.884Z,79.93
2019-03-04T08:48:26.178Z,79.02
2019-03-04T08:50:53.415Z,79.66
2019-03-04T08:53:20.688Z,79.45
2019-03-04T08:55:47.926Z,80.56
2019-03-04T08:58:15.156Z,78.25
2019-03-04T09:00:42.438Z,77.55
2019-03-04T09:03:09.702Z,77.58
2019-03-04T09:05:36.962Z,80.76
2019-03-04T09:08:04.259Z,80.02
2019-03-04T09:10:31.519Z,78.69
2019-03-04T09:12:58.869Z,78.64
2019-03-04T09:15:26.600Z,77.52
2019-03-04T09:17:53.840Z,77.71
2019-03-04T09:20:22.296Z,80.81
2019-03-04T09:22:49.577Z,79.70
2019-03-04T09:25:30.054Z,78.43
2019-03-04T09:27:52.367Z,79.66
2019-03-04T09:30:19.862Z,78.51
2019-03-04T09:32:47.102Z,81.67
2019-03-04T09:35:14.714Z,78.34
2019-03-04T09:37:42.482Z,79.43
2019-03-04T09:40:11.597Z,77.94
2019-03-04T09:42:39.110Z,78.77
2019-03-04T09:45:06.955Z,78.83
2019-03-04T09:47:34.198Z,78.51
2019-03-04T09:50:01.494Z,77.88
2019-03-04T09:52:28.748Z,77.52
2019-03-04T09:54:56.012Z,79.26
2019-03-04T09:57:23.315Z,78.31
2019-03-04T09:59:50.605Z,80.19
2019-03-04T10:02:26.194Z,78.24
2019-03-04T10:05:03.273Z,78.88
2019-03-04T10:07:52.358Z,78.52
2019-03-04T10:11:12.689Z,79.09
2019-03-04T10:14:02.050Z,79.48
2019-03-04T10:17:29.346Z,79.25
2019-03-04T10:20:25.917Z,77.75
2019-03-04T10:23:10.124Z,78.08
2019-03-04T10:26:22.154Z,78.23
2019-03-04T10:29:19.678Z,77.84
2019-03-04T10:32:20.741Z,78.23
2019-03-04T10:35:38.773Z,77.43
2019-03-04T10:38:50.858Z,76.91
2019-03-04T10:41:35.670Z,77.04
2019-03-04T10:44:29.024Z,76.94
2019-03-04T10:46:59.553Z,76.52
2019-03-04T10:49:30.531Z,75.93
2019-03-04T10:51:57.969Z,75.61
2019-03-04T10:54:25.236Z,77.34
2019-03-04T10:56:52.469Z,76.48
2019-03-04T10:59:20.714Z,77.61
2019-03-04T11:01:50.023Z,78.59
2019-03-04T11:04:18.536Z,76.01
2019-03-04T11:06:46.287Z,77.01
2019-03-04T11:09:13.684Z,75.28
2019-03-04T11:11:40.926Z,75.18
2019-03-04T11:14:08.202Z,77.88
2019-03-04T11:16:35.592Z,77.12
2019-03-04T11:19:03.291Z,75.95
2019-03-04T11:21:30.840Z,77.75
2019-03-04T11:23:58.127Z,77.07
2019-03-04T11:26:25.399Z,77.22
2019-03-04T11:28:52.658Z,77.53
2019-03-04T11:31:19.957Z,78.07
2019-03-04T11:33:47.214Z,76.96
2019-03-04T11:36:14.447Z,76.04
2019-03-04T11:38:44.312Z,77.70
2019-03-04T11:41:14.466Z,77.34
2019-03-04T11:43:41.696Z,76.59
2019-03-04T11:46:09.040Z,75.38
2019-03-04T11:48:36.286Z,78.43
2019-03-04T11:51:03.742Z,75.13
2019-03-04T11:53:31.027Z,75.45
2019-03-04T11:55:59.176Z,75.35
2019-03-04T11:58:28.727Z,74.71
2019-03-04T12:01:18.149Z,74.41
2019-03-04T12:03:47.496Z,75.10
2019-03-04T12:06:14.859Z,74.93
2019-03-04T12:08:42.305Z,74.35
2019-03-04T12:11:09.544Z,72.72
2019-03-04T12:13:36.819Z,75.98
2019-03-04T12:16:04.226Z,74.99
2019-03-04T12:18:31.536Z,75.72
2019-03-04T12:20:58.777Z,75.98
2019-03-04T12:23:26.024Z,78.05
2019-03-04T12:25:53.370Z,76.64
2019-03-04T12:28:21.722Z,76.52
2019-03-04T12:30:48.945Z,77.33
2019-03-04T12:33:16.244Z,77.85
2019-03-04T12:35:43.815Z,78.01
2019-03-04T12:38:11.100Z,77.96
2019-03-04T12:40:38.387Z,78.39
2019-03-04T12:43:05.620Z,77.75
2019-03-04T12:45:34.575Z,77.41
2019-03-04T12:48:02.019Z,76.43
2019-03-04T12:50:29.382Z,77.04
2019-03-04T12:52:56.771Z,76.68
2019-03-04T12:55:24.028Z,78.46
2019-03-04T12:57:51.301Z,77.45
2019-03-04T13:00:19.932Z,76.60
2019-03-04T13:02:56.699Z,77.26
2019-03-04T13:05:16.500Z,78.70
2019-03-04T13:07:43.807Z,78.47
2019-03-04T13:10:11.702Z,77.15
2019-03-04T13:12:41.088Z,78.65
2019-03-04T13:15:12.137Z,76.86
2019-03-04T13:17:40.759Z,79.43
2019-03-04T13:20:09.314Z,78.96
2019-03-04T13:22:36.600Z,78.58
2019-03-04T13:25:04.163Z,77.98
2019-03-04T13:27:31.450Z,78.35
2019-03-04T13:29:58.689Z,78.00
2019-03-04T13:32:25.927Z,78.76
2019-03-04T13:34:53.204Z,77.96
2019-03-04T13:37:20.437Z,79.80
2019-03-04T13:39:47.684Z,79.04
2019-03-04T13:42:14.976Z,80.83
2019-03-04T13:44:42.205Z,78.52
2019-03-04T13:47:09.532Z,78.08
2019-03-04T13:49:36.834Z,79.85
2019-03-04T13:52:04.091Z,77.80
2019-03-04T13:54:31.432Z,79.93
2019-03-04T13:56:58.711Z,78.67
2019-03-04T13:59:25.963Z,77.96
2019-03-04T14:01:54.257Z,77.88
2019-03-04T14:04:21.512Z,78.04
2019-03-04T14:06:48.793Z,79.18
2019-03-04T14:09:18.787Z,78.14
2019-03-04T14:11:46.157Z,79.19
2019-03-04T14:14:13.405Z,78.75
2019-03-04T14:16:40.785Z,77.53
2019-03-04T14:19:08.067Z,79.73
2019-03-04T14:21:35.317Z,77.67
2019-03-04T14:24:02.699Z,76.88
2019-03-04T14:26:29.969Z,76.94
2019-03-04T14:28:57.215Z,79.16
2019-03-04T14:31:24.512Z,75.59
2019-03-04T14:33:51.818Z,74.55
2019-03-04T14:36:19.127Z,74.12
2019-03-04T14:38:46.469Z,76.52
2019-03-04T14:41:13.719Z,74.28
2019-03-04T14:43:40.968Z,77.31
2019-03-04T14:46:15.095Z,73.14
2019-03-04T14:48:42.402Z,75.58
2019-03-04T14:51:09.632Z,75.06
2019-03-04T14:53:41.658Z,73.18
2019-03-04T14:56:08.912Z,75.10
2019-03-04T14:58:36.244Z,76.36
2019-03-04T15:01:04.404Z,75.20
2019-03-04T15:03:36.598Z,75.32
2019-03-04T15:06:07.165Z,72.27
2019-03-04T15:08:34.433Z,72.64
2019-03-04T15:11:01.702Z,73.02
2019-03-04T15:13:28.954Z,73.05
2019-03-04T15:16:02.468Z,74.22
2019-03-04T15:18:25.478Z,73.50
2019-03-04T15:20:52.739Z,71.59
2019-03-04T15:23:20.233Z,71.86
2019-03-04T15:25:47.536Z,72.94
2019-03-04T15:28:19.168Z,71.57
2019-03-04T15:30:48.224Z,73.55
2019-03-04T15:33:18.354Z,69.83
2019-03-04T15:35:44.865Z,70.89
2019-03-04T15:38:12.180Z,72.88
2019-03-04T15:40:39.536Z,73.58
2019-03-04T15:43:06.852Z,70.79
2019-03-04T15:45:34.620Z,69.62
2019-03-04T15:48:02.107Z,72.95
2019-03-04T15:50:30.424Z,72.26
2019-03-04T15:53:00.638Z,71.10
2019-03-04T15:55:28.372Z,73.15
2019-03-04T15:57:55.626Z,70.43
2019-03-04T16:00:23.111Z,69.49
2019-03-04T16:02:50.576Z,71.69
2019-03-04T16:05:17.897Z,71.36
2019-03-04T16:07:45.283Z,72.56
2019-03-04T16:10:14.303Z,73.51
2019-03-04T16:12:42.294Z,71.60
2019-03-04T16:15:11.779Z,70.52
2019-03-04T16:17:39.261Z,70.43
2019-03-04T16:20:15.818Z,68.90
2019-03-04T16:22:38.243Z,72.31
2019-03-04T16:25:06.127Z,73.93
2019-03-04T16:27:33.392Z,70.34
2019-03-04T16:30:00.674Z,72.57
2019-03-04T16:32:27.975Z,74.88
2019-03-04T16:34:55.348Z,72.18
2019-03-04T16:37:22.626Z,70.00
2019-03-04T16:39:50.044Z,71.35
2019-03-04T16:42:17.322Z,70.76
2019-03-04T16:44:44.575Z,69.35
2019-03-04T16:47:11.842Z,70.37
2019-03-04T16:49:39.105Z,70.29
2019-03-04T16:52:07.702Z,70.30
2019-03-04T16:54:35.206Z,73.83
2019-03-04T16:57:11.965Z,71.26
2019-03-04T16:59:42.880Z,73.46
2019-03-04T17:02:10.280Z,71.44
2019-03-04T17:04:37.562Z,72.32
2019-03-04T17:07:10.973Z,75.19
2019-03-04T17:09:38.243Z,68.72
2019-03-04T17:12:09.095Z,71.65
2019-03-04T17:14:36.397Z,70.82
2019-03-04T17:17:10.017Z,69.76
2019-03-04T17:19:37.343Z,68.97
2019-03-04T17:22:04.659Z,69.34
2019-03-04T17:24:31.910Z,69.40
2019-03-04T17:26:59.131Z,69.55
2019-03-04T17:29:26.433Z,71.11
2019-03-04T17:31:53.727Z,68.88
2019-03-04T17:34:21.007Z,73.51
2019-03-04T17:36:48.245Z,70.75
2019-03-04T17:39:15.551Z,70.75
2019-03-04T17:41:42.930Z,73.68
2019-03-04T17:44:10.418Z,66.85
2019-03-04T17:46:37.712Z,71.77
2019-03-04T17:49:04.952Z,69.85
2019-03-04T17:51:32.183Z,69.04
2019-03-04T17:53:59.560Z,67.18
2019-03-04T17:56:26.796Z,74.07
2019-03-04T17:58:54.041Z,71.15
2019-03-04T18:01:21.323Z,71.04
2019-03-04T18:03:48.830Z,70.64
2019-03-04T18:06:16.069Z,69.98
2019-03-04T18:08:44.547Z,66.96
2019-03-04T18:11:11.794Z,68.31
2019-03-04T18:13:39.058Z,71.03
2019-03-04T18:16:06.370Z,70.50
2019-03-04T18:18:34.796Z,69.56
2019-03-04T18:21:02.055Z,72.07
2019-03-04T18:23:29.334Z,70.90
2019-03-04T18:26:00.938Z,70.65
2019-03-04T18:29:09.959Z,73.29
2019-03-04T18:32:34.897Z,72.30
2019-03-04T18:36:03.769Z,70.31
2019-03-04T18:39:14.336Z,70.62
2019-03-04T18:42:44.157Z,71.71
2019-03-04T18:46:01.948Z,71.30
2019-03-04T18:48:55.351Z,70.04
2019-03-04T18:51:23.504Z,73.65
2019-03-04T18:53:52.153Z,70.62
2019-03-04T18:56:22.253Z,72.20
2019-03-04T18:58:49.146Z,72.20
2019-03-04T19:01:16.473Z,70.51
2019-03-04T19:03:43.734Z,70.50
2019-03-04T19:06:11.188Z,72.52
2019-03-04T19:08:38.586Z,70.80
2019-03-04T19:11:05.954Z,72.30
2019-03-04T19:13:33.201Z,69.96
2019-03-04T19:16:00.471Z,70.48
2019-03-04T19:18:27.830Z,69.78
2019-03-04T19:20:55.138Z,69.89
2019-03-04T19:23:22.415Z,71.50
2019-03-04T19:25:49.749Z,72.40
2019-03-04T19:28:17.348Z,70.09
2019-03-04T19:30:44.616Z,68.96
2019-03-04T19:33:12.064Z,69.85
2019-03-04T19:35:39.316Z,70.51
2019-03-04T19:38:06.567Z,70.51
2019-03-04T19:40:33.847Z,70.14
2019-03-04T19:43:01.099Z,70.04
2019-03-04T19:45:28.399Z,69.44
2019-03-04T19:47:57.151Z,70.61
2019-03-04T19:50:24.429Z,72.69
2019-03-04T19:52:51.829Z,70.75
2019-03-04T19:55:19.167Z,72.26
2019-03-04T19:57:46.499Z,72.03
2019-03-04T20:00:16.853Z,71.90
2019-03-04T20:02:44.150Z,71.96
2019-03-04T20:05:12.663Z,73.47
2019-03-04T20:07:40.530Z,72.98
2019-03-04T20:10:08.655Z,71.90
2019-03-04T20:12:35.925Z,72.06
2019-03-04T20:15:04.399Z,72.77
2019-03-04T20:17:31.897Z,73.10
2019-03-04T20:19:59.157Z,74.22
2019-03-04T20:22:26.445Z,72.91
2019-03-04T20:24:54.742Z,75.68
2019-03-04T20:27:21.988Z,74.44
2019-03-04T20:29:49.332Z,73.84
2019-03-04T20:32:16.625Z,75.52
2019-03-04T20:34:43.879Z,74.28
2019-03-04T20:37:11.127Z,73.63
2019-03-04T20:39:38.435Z,74.50
2019-03-04T20:42:05.688Z,74.93
2019-03-04T20:44:32.955Z,73.75
2019-03-04T20:47:00.264Z,75.18
2019-03-04T20:49:27.494Z,75.03
2019-03-04T20:51:54.771Z,75.67
2019-03-04T20:54:22.073Z,74.82
2019-03-04T20:56:49.415Z,74.85
2019-03-04T20:59:17.086Z,74.98
2019-03-04T21:01:44.509Z,75.55
2019-03-04T21:04:12.131Z,75.61
2019-03-04T21:06:39.457Z,74.62
2019-03-04T21:09:07.468Z,74.60
2019-03-04T21:11:34.921Z,75.04
2019-03-04T21:14:02.175Z,76.06
2019-03-04T21:16:29.463Z,73.98
2019-03-04T21:18:56.781Z,74.58
2019-03-04T21:21:24.106Z,75.27
2019-03-04T21:23:51.367Z,75.22
2019-03-04T21:26:24.516Z,74.89
2019-03-04T21:29:29.913Z,74.66
2019-03-04T21:32:15.161Z,74.24
2019-03-04T21:35:07.409Z,74.37
2019-03-04T21:37:40.894Z,74.78
2019-03-04T21:40:35.924Z,74.51
2019-03-04T21:43:17.588Z,74.28
2019-03-04T21:46:22.266Z,74.19
2019-03-04T21:48:53.551Z,73.57
2019-03-04T21:52:06.155Z,73.19
2019-03-04T21:54:34.865Z,73.76
2019-03-04T21:57:31.952Z,73.38
2019-03-04T21:59:59.523Z,73.35
2019-03-04T22:02:54.016Z,73.01
2019-03-04T22:05:23.090Z,74.56
2019-03-04T22:07:50.465Z,73.93
2019-03-04T22:10:17.871Z,74.16
2019-03-04T22:12:45.347Z,73.56
2019-03-04T22:15:13.063Z,73.71
2019-03-04T22:17:40.639Z,73.65
2019-03-04T22:20:08.829Z,74.61
2019-03-04T22:22:36.246Z,74.40
2019-03-04T22:25:04.167Z,72.82
2019-03-04T22:27:31.505Z,73.19
2019-03-04T22:29:58.814Z,74.34
2019-03-04T22:32:26.033Z,74.50
2019-03-04T22:34:53.285Z,74.06
2019-03-04T22:37:20.647Z,74.64
2019-03-04T22:39:47.883Z,74.56
2019-03-04T22:42:15.134Z,74.93
2019-03-04T22:44:42.420Z,74.44
2019-03-04T22:47:09.656Z,74.56
2019-03-04T22:49:36.955Z,74.64
2019-03-04T22:52:04.258Z,75.12
2019-03-04T22:54:31.502Z,75.91
2019-03-04T22:56:58.775Z,75.34
2019-03-04T22:59:26.045Z,76.21
2019-03-04T23:02:00.113Z,73.71
2019-03-04T23:04:51.366Z,74.61
2019-03-04T23:07:48.268Z,74.31
2019-03-04T23:10:39.289Z,74.74
2019-03-04T23:13:16.910Z,75.74
2019-03-04T23:15:46.925Z,75.75
2019-03-04T23:18:14.210Z,75.73
2019-03-04T23:20:44.155Z,75.90
2019-03-04T23:23:11.420Z,77.03
2019-03-04T23:25:38.666Z,76.56
2019-03-04T23:28:05.954Z,75.97
2019-03-04T23:30:33.186Z,76.70
2019-03-04T23:33:00.446Z,77.23
2019-03-04T23:35:28.943Z,76.92
2019-03-04T23:37:56.194Z,77.29
2019-03-04T23:40:25.933Z,76.50
2019-03-04T23:42:53.199Z,75.99
2019-03-04T23:45:20.454Z,76.82
2019-03-04T23:47:47.743Z,76.22
2019-03-04T23:50:19.692Z,75.11
2019-03-04T23:52:46.923Z,75.12
2019-03-04T23:55:14.439Z,75.26
2019-03-04T23:57:41.788Z,75.92
